Ridgeway, South Carolina
Current Conditions -  °F | °C
As of 10:55 PM on Friday 24 Oct 2014 (Local Time) from KFDW Reporting Station
Clear Clear  
Wind Chill: 50°   Ceiling: Unl
Heat Index: 50°   Visibility: 10mi
Dew Point: 46°   Wind: 5mph
Humidity: 87%   Direction: 350°N
Pressure: 30.03"   Gusts: NA
Location:  34.31°N, 80.96°W
Report Text: KFDW 250255Z AUTO 35004KT 10SM CLR 10/08 A3003 RMK AO1
Loading
Personal Weather Stations






























Interactive Weather Map
Tropical Storm Tracking
New forecast layout! Learn more

10-Day Weather Forecast

Advertisements
Track Severe Weather on mobile